Portada
METAR-TAF:

METAR-TAF

Aeroports :

Bejaïa, Algèria

latitud: 36-43N, longitud: 005-04E, altitud: 2 m

Observació

L'informe es va fer fa 48 minuts, a les 09:00 UTC
Vent 18 kt del Oest
Temperatura 24°C
Humitat 31%
Pressió 1017 hPa
Visibilitat 10 km o més
sense núvols per sota de 1500 mi sense presència de cumulonimbus.

METAR: DAAE 220900Z 26018KT CAVOK 24/06 Q1017

Hora: 10:48 (09:48 UTC)

Pronòstic

L'informe es va fer fa 4 hores i 48 minuts, a les 05:00 UTC
Pronòstic vàlid del 22 a les 06 UTC al 23 a les 06 UTC
Vent 14 kt del Oest/Sud-Oest
Visibilitat 10 km o més
sense núvols per sota de 1500 mi sense presència de cumulonimbus.
Evolucionant progressivament
l' 22 a les 10 UTC al 22 a les 12 UTC
Vent 8 kt del Nord-Est
Evolucionant progressivament
l' 22 a les 15 UTC al 22 a les 18 UTC
Vent 14 kt del Sud-Oest

TAF: DAAE 220500Z 2206/2306 25014KT CAVOK BECMG 2210/2212 04008KT BECMG 2215/2218 22014KT

Observacions i pronòstics meteorològics de més de 4000 aeroports (METAR i TAF).

Les estacions disponibles són els punts grocs i vermells al mapa.

Posi el ratolí al punt desitjat per veure el nom de l'estació.

Feu clic per veure les observacions i els pronòstics meteorològics.

Per canviar el mapa: feu clic els botons verds amb una creu de color negre per apropar; al botó verd amb un guió per allunyar la imatge; o en les fletxes verdes per a mapes adjacents.


METAR-TAF: